Terminal Aerodrome Forecast
Issued by NWS

Home | Current Version | Previous Version | Graphics & Text | Print | Product List | Glossary On
Versions: 1 2 3 4 5 6 7 8 9 10 11 12 13 14 15 16 17 18 19 20 21 22 23 24 25 26 27
139
FTUS43 KLOT 170522
TAFORD
TAF
KORD 170522Z 1706/1812 19012KT 6SM BR SCT012 BKN040
      TEMPO 1709/1713 4SM SHRA BR BKN012
     FM171300 22012G18KT P6SM SCT020 BKN035
     FM171700 24018G26KT P6SM BKN050
     FM180100 26013G20KT P6SM BKN050
     FM180600 28012G16KT P6SM SCT050=

USA.gov is the U.S. government's official web portal to all federal, state and local government web resources and services.